createdAt,value
2019-05-18T00:02:26.900Z,94348.48
2019-05-18T00:04:58.477Z,94352.31
2019-05-18T00:07:28.873Z,94348.78
2019-05-18T00:09:59.379Z,94348.23
2019-05-18T00:12:29.767Z,94351.39
2019-05-18T00:15:00.178Z,94347.14
2019-05-18T00:17:31.677Z,94342.11
2019-05-18T00:20:02.979Z,94351.95
2019-05-18T00:22:33.709Z,94342.09
2019-05-18T00:25:05.291Z,94347.60
2019-05-18T00:27:35.714Z,94352.81
2019-05-18T00:30:06.921Z,94350.83
2019-05-18T00:32:37.755Z,94356.10
2019-05-18T00:35:09.017Z,94352.37
2019-05-18T00:37:40.153Z,94347.16
2019-05-18T00:40:11.078Z,94343.61
2019-05-18T00:42:41.480Z,94340.50
2019-05-18T00:45:11.994Z,94339.94
2019-05-18T00:47:42.584Z,94335.47
2019-05-18T00:50:14.389Z,94340.55
2019-05-18T00:52:44.922Z,94343.28
2019-05-18T00:55:16.417Z,94347.86
2019-05-18T00:57:47.037Z,94345.16
2019-05-18T01:00:19.272Z,94334.52
2019-05-18T01:02:49.681Z,94344.66
2019-05-18T01:05:20.412Z,94343.70
2019-05-18T01:07:51.224Z,94345.14
2019-05-18T01:10:21.739Z,94337.41
2019-05-18T01:12:52.243Z,94330.20
2019-05-18T01:15:23.253Z,94326.30
2019-05-18T01:17:57.219Z,94331.78
2019-05-18T01:20:26.386Z,94334.64
2019-05-18T01:22:57.059Z,94333.97
2019-05-18T01:25:27.836Z,94271.89
2019-05-18T01:27:58.618Z,94337.11
2019-05-18T01:30:28.937Z,94326.86
2019-05-18T01:32:59.368Z,94333.64
2019-05-18T01:35:30.017Z,94331.09
2019-05-18T01:38:00.440Z,94328.33
2019-05-18T01:40:30.885Z,94319.25
2019-05-18T01:43:01.803Z,94312.72
2019-05-18T01:45:32.140Z,94315.74
2019-05-18T01:48:13.129Z,94311.67
2019-05-18T01:50:35.617Z,94310.78
2019-05-18T01:53:06.090Z,94308.11
2019-05-18T01:55:36.803Z,94309.43
2019-05-18T01:58:07.218Z,94302.26
2019-05-18T02:00:37.593Z,94304.30
2019-05-18T02:03:08.250Z,94302.61
2019-05-18T02:05:38.580Z,94302.83
2019-05-18T02:08:08.942Z,94302.72
2019-05-18T02:10:39.463Z,94299.22
2019-05-18T02:13:09.889Z,94301.09
2019-05-18T02:15:40.188Z,94296.15
2019-05-18T02:18:10.711Z,94290.15
2019-05-18T02:20:42.479Z,94293.16
2019-05-18T02:23:12.783Z,94283.03
2019-05-18T02:25:43.459Z,94287.45
2019-05-18T02:28:13.971Z,94285.34
2019-05-18T02:30:44.315Z,94292.71
2019-05-18T02:33:14.752Z,94294.44
2019-05-18T02:35:45.606Z,94302.14
2019-05-18T02:38:19.387Z,94296.89
2019-05-18T02:40:49.905Z,94301.31
2019-05-18T02:43:20.630Z,94297.84
2019-05-18T02:45:51.013Z,94304.66
2019-05-18T02:48:21.301Z,94302.70
2019-05-18T02:50:52.119Z,94297.70
2019-05-18T02:53:22.692Z,94292.30
2019-05-18T02:55:53.415Z,94293.16
2019-05-18T02:58:24.685Z,94289.98
2019-05-18T03:00:55.135Z,94289.27
2019-05-18T03:03:25.682Z,94291.58
2019-05-18T03:05:56.234Z,94298.48
2019-05-18T03:08:26.634Z,94300.09
2019-05-18T03:10:57.618Z,94301.98
2019-05-18T03:13:27.946Z,94297.61
2019-05-18T03:15:58.239Z,94298.70
2019-05-18T03:18:29.179Z,94300.16
2019-05-18T03:21:00.121Z,94300.65
2019-05-18T03:23:30.652Z,94300.69
2019-05-18T03:26:00.958Z,94300.34
2019-05-18T03:28:31.321Z,94304.91
2019-05-18T03:31:02.103Z,94308.32
2019-05-18T03:33:32.790Z,94316.36
2019-05-18T03:36:03.083Z,94317.73
2019-05-18T03:38:33.813Z,94321.25
2019-05-18T03:41:04.299Z,94319.44
2019-05-18T03:43:34.644Z,94317.53
2019-05-18T03:46:05.048Z,94318.14
2019-05-18T03:48:35.695Z,94320.39
2019-05-18T03:51:06.556Z,94316.14
2019-05-18T03:53:36.998Z,94322.84
2019-05-18T03:56:07.366Z,94326.98
2019-05-18T03:58:38.054Z,94321.95
2019-05-18T04:01:08.849Z,94335.30
2019-05-18T04:03:39.390Z,94338.47
2019-05-18T04:06:10.202Z,94337.70
2019-05-18T04:08:41.017Z,94330.09
2019-05-18T04:11:11.349Z,94330.06
2019-05-18T04:13:41.737Z,94337.46
2019-05-18T04:16:12.243Z,94335.77
2019-05-18T04:18:42.554Z,94338.55
2019-05-18T04:21:13.079Z,94338.87
2019-05-18T04:23:43.598Z,94336.83
2019-05-18T04:26:13.969Z,94333.92
2019-05-18T04:28:44.667Z,94335.00
2019-05-18T04:31:15.131Z,94335.28
2019-05-18T04:33:45.644Z,94351.61
2019-05-18T04:36:16.113Z,94327.69
2019-05-18T04:38:46.496Z,94329.27
2019-05-18T04:41:16.941Z,94331.28
2019-05-18T04:43:47.571Z,94330.91
2019-05-18T04:46:18.006Z,94332.52
2019-05-18T04:48:48.332Z,94333.83
2019-05-18T04:51:20.099Z,94341.12
2019-05-18T04:53:50.624Z,94339.97
2019-05-18T04:56:20.986Z,94334.56
2019-05-18T04:58:51.771Z,94337.16
2019-05-18T05:01:22.107Z,94340.88
2019-05-18T05:03:52.554Z,94346.74
2019-05-18T05:06:22.880Z,94344.41
2019-05-18T05:08:53.189Z,94347.44
2019-05-18T05:11:24.018Z,94359.73
2019-05-18T05:13:54.561Z,94349.66
2019-05-18T05:16:24.877Z,94353.70
2019-05-18T05:18:55.393Z,94356.95
2019-05-18T05:21:26.238Z,94363.77
2019-05-18T05:23:56.633Z,94361.98
2019-05-18T05:26:27.410Z,94369.04
2019-05-18T05:28:58.143Z,94364.89
2019-05-18T05:31:28.467Z,94361.93
2019-05-18T05:33:58.840Z,94361.02
2019-05-18T05:36:29.547Z,94361.94
2019-05-18T05:39:00.861Z,94354.16
2019-05-18T05:41:31.446Z,94353.52
2019-05-18T05:44:01.853Z,94362.22
2019-05-18T05:46:32.423Z,94360.92
2019-05-18T05:49:03.264Z,94360.95
2019-05-18T05:51:33.560Z,94360.22
2019-05-18T05:54:04.196Z,94354.20
2019-05-18T05:56:34.891Z,94365.20
2019-05-18T05:59:05.264Z,94364.66
2019-05-18T06:01:36.774Z,94361.19
2019-05-18T06:04:07.404Z,94360.19
2019-05-18T06:06:37.964Z,94361.77
2019-05-18T06:09:09.139Z,94359.08
2019-05-18T06:11:39.497Z,94365.05
2019-05-18T06:14:10.043Z,94359.19
2019-05-18T06:16:40.775Z,94361.55
2019-05-18T06:19:11.194Z,94360.64
2019-05-18T06:21:41.561Z,94360.28
2019-05-18T06:24:12.252Z,94358.56
2019-05-18T06:26:42.668Z,94365.23
2019-05-18T06:29:13.002Z,94358.83
2019-05-18T06:31:43.419Z,94362.63
2019-05-18T06:34:13.811Z,94360.66
2019-05-18T06:36:45.060Z,94370.30
2019-05-18T06:39:15.735Z,94373.36
2019-05-18T06:41:46.307Z,94374.50
2019-05-18T06:44:16.752Z,94372.56
2019-05-18T06:46:47.426Z,94367.92
2019-05-18T06:49:18.207Z,94366.04
2019-05-18T06:51:48.627Z,94362.94
2019-05-18T06:54:19.268Z,94365.52
2019-05-18T06:56:51.173Z,94364.61
2019-05-18T06:59:21.803Z,94359.44
2019-05-18T07:01:52.288Z,94361.84
2019-05-18T07:04:22.729Z,94365.27
2019-05-18T07:06:53.035Z,94358.23
2019-05-18T07:09:23.741Z,94358.84
2019-05-18T07:11:56.112Z,94356.59
2019-05-18T07:14:27.392Z,94357.41
2019-05-18T07:16:58.058Z,94359.75
2019-05-18T07:19:28.480Z,94355.28
2019-05-18T07:21:58.885Z,94355.27
2019-05-18T07:24:29.476Z,94353.55
2019-05-18T07:26:59.840Z,94354.23
2019-05-18T07:29:30.314Z,94355.28
2019-05-18T07:32:01.065Z,94348.92
2019-05-18T07:34:31.410Z,94348.75
2019-05-18T07:37:01.703Z,94346.97
2019-05-18T07:39:35.846Z,94343.17
2019-05-18T07:42:04.557Z,94347.11
2019-05-18T07:44:35.150Z,94342.98
2019-05-18T07:47:05.458Z,94345.80
2019-05-18T07:49:35.792Z,94336.41
2019-05-18T07:52:06.632Z,94331.42
2019-05-18T07:54:37.246Z,94332.42
2019-05-18T07:57:07.565Z,94331.47
2019-05-18T07:59:38.334Z,94329.00
2019-05-18T08:02:08.794Z,94330.94
2019-05-18T08:04:39.842Z,94330.56
2019-05-18T08:07:10.790Z,94337.96
2019-05-18T08:09:41.409Z,94334.42
2019-05-18T08:12:11.822Z,94332.09
2019-05-18T08:14:42.362Z,94337.25
2019-05-18T08:17:12.746Z,94331.16
2019-05-18T08:19:43.497Z,94331.78
2019-05-18T08:22:14.165Z,94330.71
2019-05-18T08:24:44.525Z,94329.92
2019-05-18T08:27:15.239Z,94321.88
2019-05-18T08:29:45.684Z,94324.73
2019-05-18T08:32:16.964Z,94326.88
2019-05-18T08:34:47.389Z,94317.11
2019-05-18T08:37:17.992Z,94314.30
2019-05-18T08:39:49.297Z,94314.30
2019-05-18T08:42:19.849Z,94312.97
2019-05-18T08:44:50.342Z,94311.19
2019-05-18T08:47:21.140Z,94310.71
2019-05-18T08:49:51.945Z,94305.92
2019-05-18T08:52:23.427Z,94307.10
2019-05-18T08:54:53.897Z,94310.94
2019-05-18T08:57:24.682Z,94311.05
2019-05-18T08:59:54.977Z,94309.59
2019-05-18T09:02:25.396Z,94314.41
2019-05-18T09:04:55.798Z,94309.27
2019-05-18T09:07:26.262Z,94312.94
2019-05-18T09:09:56.612Z,94311.97
2019-05-18T09:12:27.048Z,94311.81
2019-05-18T09:14:57.698Z,94311.70
2019-05-18T09:17:28.361Z,94310.34
2019-05-18T09:19:58.661Z,94299.52
2019-05-18T09:22:29.032Z,94292.41
2019-05-18T09:24:59.827Z,94289.55
2019-05-18T09:27:30.296Z,94290.91
2019-05-18T09:30:00.686Z,94289.39
2019-05-18T09:32:31.436Z,94284.37
2019-05-18T09:35:01.843Z,94270.42
2019-05-18T09:37:32.700Z,94272.31
2019-05-18T09:40:03.519Z,94267.09
2019-05-18T09:42:34.153Z,94273.54
2019-05-18T09:45:04.999Z,94267.92
2019-05-18T09:47:35.912Z,94272.06
2019-05-18T09:50:06.709Z,94275.42
2019-05-18T09:52:46.203Z,94268.16
2019-05-18T09:55:10.861Z,94261.69
2019-05-18T09:57:41.256Z,94266.45
2019-05-18T10:00:12.505Z,94246.64
2019-05-18T10:02:43.012Z,94257.80
2019-05-18T10:05:13.819Z,94251.38
2019-05-18T10:07:44.676Z,94241.44
2019-05-18T10:10:15.709Z,94236.27
2019-05-18T10:12:46.249Z,94238.17
2019-05-18T10:15:16.943Z,94245.47
2019-05-18T10:17:47.555Z,94238.27
2019-05-18T10:20:17.949Z,94235.38
2019-05-18T10:22:59.224Z,94234.98
2019-05-18T10:25:20.614Z,94231.53
2019-05-18T10:27:51.389Z,94236.84
2019-05-18T10:30:22.117Z,94227.19
2019-05-18T10:32:52.444Z,94226.92
2019-05-18T10:35:22.969Z,94220.84
2019-05-18T10:37:53.805Z,94219.42
2019-05-18T10:40:24.107Z,94220.82
2019-05-18T10:42:54.577Z,94220.83
2019-05-18T10:45:25.446Z,94210.45
2019-05-18T10:47:55.957Z,94212.90
2019-05-18T10:50:26.322Z,94205.93
2019-05-18T10:52:57.250Z,94204.38
2019-05-18T10:55:27.779Z,94206.09
2019-05-18T10:57:58.207Z,94203.08
2019-05-18T11:00:29.059Z,94202.16
2019-05-18T11:02:59.553Z,94207.34
2019-05-18T11:05:29.904Z,94190.99
2019-05-18T11:08:00.596Z,94189.59
2019-05-18T11:10:31.410Z,94184.47
2019-05-18T11:13:01.823Z,94183.69
2019-05-18T11:15:32.382Z,94179.63
2019-05-18T11:18:03.169Z,94182.48
2019-05-18T11:20:33.521Z,94182.73
2019-05-18T11:23:03.928Z,94172.72
2019-05-18T11:25:34.505Z,94174.98
2019-05-18T11:28:04.905Z,94174.55
2019-05-18T11:30:35.394Z,94162.77
2019-05-18T11:33:05.725Z,94156.30
2019-05-18T11:35:36.325Z,94153.84
2019-05-18T11:38:06.847Z,94153.59
2019-05-18T11:40:37.200Z,94143.35
2019-05-18T11:43:07.601Z,94142.54
2019-05-18T11:45:38.319Z,94130.89
2019-05-18T11:48:08.755Z,94128.27
2019-05-18T11:50:39.097Z,94132.74
2019-05-18T11:53:09.633Z,94124.13
2019-05-18T11:55:40.127Z,94121.54
2019-05-18T11:58:10.557Z,94123.53
2019-05-18T12:00:40.854Z,94123.03
2019-05-18T12:03:11.180Z,94126.72
2019-05-18T12:05:42.001Z,94119.26
2019-05-18T12:08:12.403Z,94117.03
2019-05-18T12:10:42.744Z,94108.02
2019-05-18T12:13:13.624Z,94101.38
2019-05-18T12:15:44.268Z,94093.94
2019-05-18T12:18:14.795Z,94107.30
2019-05-18T12:20:45.581Z,94096.33
2019-05-18T12:23:16.112Z,94095.53
2019-05-18T12:25:46.422Z,94092.94
2019-05-18T12:28:17.968Z,94092.42
2019-05-18T12:30:48.260Z,94085.86
2019-05-18T12:33:19.109Z,94085.53
2019-05-18T12:35:49.642Z,94086.87
2019-05-18T12:38:19.953Z,94080.73
2019-05-18T12:40:50.596Z,94072.80
2019-05-18T12:43:21.140Z,94079.61
2019-05-18T12:45:51.490Z,94079.03
2019-05-18T12:48:23.280Z,94079.79
2019-05-18T12:50:54.027Z,94072.34
2019-05-18T12:53:24.420Z,94064.16
2019-05-18T12:55:54.962Z,94074.73
2019-05-18T12:58:25.706Z,94070.58
2019-05-18T13:00:56.191Z,94066.75
2019-05-18T13:03:26.597Z,94060.52
2019-05-18T13:05:56.953Z,94057.02
2019-05-18T13:08:27.707Z,94030.28
2019-05-18T13:10:58.454Z,94056.07
2019-05-18T13:13:28.885Z,94055.66
2019-05-18T13:15:59.445Z,94058.75
2019-05-18T13:18:30.116Z,94059.45
2019-05-18T13:21:00.588Z,94039.88
2019-05-18T13:23:30.968Z,94050.43
2019-05-18T13:26:01.386Z,94043.17
2019-05-18T13:28:31.721Z,94035.58
2019-05-18T13:31:02.022Z,94041.02
2019-05-18T13:33:32.475Z,94027.36
2019-05-18T13:36:02.937Z,94029.91
2019-05-18T13:38:33.671Z,94027.83
2019-05-18T13:41:04.151Z,94026.45
2019-05-18T13:43:34.518Z,94023.49
2019-05-18T13:46:05.290Z,94019.98
2019-05-18T13:48:35.612Z,94026.13
2019-05-18T13:51:05.973Z,94018.75
2019-05-18T13:53:36.583Z,94010.85
2019-05-18T13:56:06.914Z,94007.34
2019-05-18T13:58:37.245Z,94012.08
2019-05-18T14:01:07.685Z,94016.29
2019-05-18T14:03:38.293Z,94008.17
2019-05-18T14:06:08.823Z,94008.05
2019-05-18T14:08:39.173Z,94004.28
2019-05-18T14:11:09.474Z,94000.23
2019-05-18T14:13:40.205Z,93995.63
2019-05-18T14:16:10.721Z,94002.50
2019-05-18T14:18:41.094Z,94000.80
2019-05-18T14:21:11.933Z,93998.88
2019-05-18T14:23:42.678Z,93995.62
2019-05-18T14:26:13.052Z,93993.89
2019-05-18T14:28:43.458Z,93993.10
2019-05-18T14:31:14.294Z,93994.56
2019-05-18T14:33:44.735Z,93998.30
2019-05-18T14:36:15.358Z,93995.04
2019-05-18T14:38:45.783Z,93992.71
2019-05-18T14:41:16.581Z,93994.97
2019-05-18T14:43:47.156Z,93997.27
2019-05-18T14:46:17.527Z,93993.63
2019-05-18T14:48:48.211Z,93992.80
2019-05-18T14:51:19.090Z,93993.47
2019-05-18T14:53:49.424Z,93989.25
2019-05-18T14:56:19.839Z,93988.50
2019-05-18T14:58:50.268Z,93990.14
2019-05-18T15:01:20.568Z,93987.13
2019-05-18T15:03:51.016Z,93982.77
2019-05-18T15:06:21.699Z,93973.97
2019-05-18T15:08:52.028Z,93977.31
2019-05-18T15:11:22.362Z,93964.02
2019-05-18T15:13:53.136Z,93971.01
2019-05-18T15:16:23.623Z,93969.36
2019-05-18T15:18:54.111Z,93968.33
2019-05-18T15:21:24.780Z,93972.34
2019-05-18T15:23:55.253Z,93966.41
2019-05-18T15:26:25.588Z,93970.67
2019-05-18T15:28:56.024Z,93967.61
2019-05-18T15:31:26.665Z,93968.76
2019-05-18T15:33:57.140Z,93970.76
2019-05-18T15:36:27.659Z,93970.84
2019-05-18T15:38:58.403Z,93974.98
2019-05-18T15:41:28.699Z,93975.06
2019-05-18T15:43:59.319Z,93976.78
2019-05-18T15:46:29.664Z,93976.78
2019-05-18T15:49:00.517Z,93981.92
2019-05-18T15:51:31.403Z,93975.72
2019-05-18T15:54:01.777Z,93973.47
2019-05-18T15:56:32.412Z,93975.58
2019-05-18T15:59:03.217Z,93975.58
2019-05-18T16:01:33.520Z,93977.46
2019-05-18T16:04:06.567Z,93979.87
2019-05-18T16:06:36.636Z,93974.91
2019-05-18T16:09:08.034Z,93972.91
2019-05-18T16:11:38.337Z,93985.03
2019-05-18T16:14:09.276Z,93982.55
2019-05-18T16:16:40.817Z,93980.52
2019-05-18T16:19:11.426Z,93987.22
2019-05-18T16:21:41.784Z,93985.52
2019-05-18T16:24:12.465Z,93983.58
2019-05-18T16:26:43.007Z,93981.30
2019-05-18T16:29:13.331Z,93979.55
2019-05-18T16:31:43.742Z,93975.91
2019-05-18T16:34:14.452Z,93981.86
2019-05-18T16:36:45.013Z,93979.09
2019-05-18T16:39:15.341Z,93979.14
2019-05-18T16:41:46.240Z,93980.25
2019-05-18T16:44:16.831Z,93985.97
2019-05-18T16:46:47.293Z,93990.64
2019-05-18T16:49:17.769Z,93992.77
2019-05-18T16:51:48.161Z,93987.87
2019-05-18T16:54:18.935Z,93996.30
2019-05-18T16:56:49.260Z,93998.60
2019-05-18T16:59:19.605Z,93993.84
2019-05-18T17:01:50.411Z,93989.69
2019-05-18T17:04:21.086Z,93983.99
2019-05-18T17:06:51.451Z,93981.98
2019-05-18T17:09:22.206Z,93980.20
2019-05-18T17:11:53.105Z,93980.37
2019-05-18T17:14:23.479Z,93985.34
2019-05-18T17:16:53.861Z,93976.82
2019-05-18T17:19:24.237Z,93979.23
2019-05-18T17:21:54.752Z,93983.34
2019-05-18T17:24:25.163Z,93983.11
2019-05-18T17:26:55.560Z,93982.94
2019-05-18T17:29:26.337Z,93994.28
2019-05-18T17:31:57.040Z,93993.70
2019-05-18T17:34:27.389Z,93990.78
2019-05-18T17:36:57.855Z,93995.56
2019-05-18T17:39:28.668Z,94005.63
2019-05-18T17:41:58.970Z,94005.19
2019-05-18T17:44:29.441Z,94010.21
2019-05-18T17:47:00.083Z,94009.45
2019-05-18T17:49:30.462Z,94012.44
2019-05-18T17:52:01.136Z,94016.08
2019-05-18T17:54:31.496Z,94013.46
2019-05-18T17:57:08.536Z,94011.84
2019-05-18T17:59:34.153Z,94011.39
2019-05-18T18:02:04.681Z,94010.98
2019-05-18T18:04:36.294Z,94021.98
2019-05-18T18:07:06.982Z,94017.96
2019-05-18T18:09:37.362Z,94029.12
2019-05-18T18:12:07.826Z,94034.36
2019-05-18T18:14:38.665Z,94032.95
2019-05-18T18:17:09.354Z,94031.40
2019-05-18T18:19:40.745Z,94039.88
2019-05-18T18:22:11.717Z,94034.06
2019-05-18T18:24:42.025Z,94037.79
2019-05-18T18:27:24.927Z,94041.30
2019-05-18T18:29:45.310Z,94042.21
2019-05-18T18:32:15.767Z,94039.31
2019-05-18T18:34:46.400Z,94046.02
2019-05-18T18:37:16.875Z,94043.13
2019-05-18T18:39:47.509Z,94047.22
2019-05-18T18:42:19.538Z,94038.95
2019-05-18T18:44:50.075Z,94041.05
2019-05-18T18:47:20.374Z,94054.38
2019-05-18T18:49:51.070Z,94053.75
2019-05-18T18:52:21.455Z,94061.23
2019-05-18T18:54:51.861Z,94059.67
2019-05-18T18:57:22.179Z,94058.52
2019-05-18T18:59:52.595Z,94068.54
2019-05-18T19:02:24.506Z,94053.19
2019-05-18T19:04:55.072Z,94058.45
2019-05-18T19:07:25.415Z,94066.00
2019-05-18T19:09:56.116Z,94065.55
2019-05-18T19:12:26.796Z,94047.84
2019-05-18T19:14:57.147Z,94055.02
2019-05-18T19:17:27.714Z,94067.66
2019-05-18T19:19:58.461Z,94068.81
2019-05-18T19:22:28.758Z,94073.51
2019-05-18T19:24:59.178Z,94072.73
2019-05-18T19:27:29.568Z,93955.02
2019-05-18T19:29:59.917Z,94071.56
2019-05-18T19:32:30.240Z,94064.50
2019-05-18T19:35:00.979Z,94064.33
2019-05-18T19:37:31.432Z,94073.23
2019-05-18T19:40:01.846Z,94063.88
2019-05-18T19:42:32.855Z,93779.73
2019-05-18T19:45:03.591Z,94068.80
2019-05-18T19:47:33.866Z,94070.27
2019-05-18T19:50:04.961Z,94058.03
2019-05-18T19:52:35.472Z,94045.42
2019-05-18T19:55:05.931Z,94064.26
2019-05-18T19:57:36.687Z,94060.06
2019-05-18T20:00:07.050Z,94057.06
2019-05-18T20:02:39.158Z,94053.08
2019-05-18T20:05:10.045Z,94053.52
2019-05-18T20:07:40.383Z,94057.70
2019-05-18T20:10:12.498Z,94064.84
2019-05-18T20:12:43.267Z,94070.92
2019-05-18T20:15:14.797Z,94078.09
2019-05-18T20:17:45.510Z,94088.72
2019-05-18T20:20:16.495Z,94091.92
2019-05-18T20:22:46.826Z,94088.91
2019-05-18T20:25:17.264Z,94083.52
2019-05-18T20:27:47.804Z,94092.28
2019-05-18T20:30:18.341Z,94104.42
2019-05-18T20:32:49.027Z,94103.10
2019-05-18T20:35:19.395Z,94105.84
2019-05-18T20:37:49.878Z,94110.52
2019-05-18T20:40:20.740Z,94106.75
2019-05-18T20:42:51.208Z,94112.82
2019-05-18T20:45:21.789Z,94119.86
2019-05-18T20:47:52.578Z,94125.03
2019-05-18T20:50:22.949Z,94124.36
2019-05-18T20:52:53.337Z,94124.45
2019-05-18T20:55:24.166Z,94119.84
2019-05-18T20:57:54.540Z,94121.77
2019-05-18T21:00:24.877Z,94130.60
2019-05-18T21:02:55.586Z,94133.77
2019-05-18T21:05:26.428Z,94116.00
2019-05-18T21:07:57.132Z,94120.08
2019-05-18T21:10:27.460Z,94123.60
2019-05-18T21:12:57.876Z,94113.22
2019-05-18T21:15:28.776Z,94110.41
2019-05-18T21:17:59.089Z,94120.30
2019-05-18T21:20:29.434Z,94120.30
2019-05-18T21:23:00.245Z,94115.69
2019-05-18T21:25:30.604Z,94115.69
2019-05-18T21:28:00.933Z,94079.67
2019-05-18T21:30:31.746Z,94117.94
2019-05-18T21:33:02.318Z,94122.48
2019-05-18T21:35:32.730Z,94121.05
2019-05-18T21:38:03.516Z,94121.05
2019-05-18T21:40:34.251Z,94122.85
2019-05-18T21:43:04.577Z,94120.83
2019-05-18T21:45:35.125Z,94116.41
2019-05-18T21:48:05.725Z,94101.86
2019-05-18T21:50:36.099Z,94107.73
2019-05-18T21:53:06.444Z,94122.27
2019-05-18T21:55:36.948Z,94116.83
2019-05-18T21:58:07.284Z,94103.18
2019-05-18T22:00:37.660Z,94109.16
2019-05-18T22:03:10.082Z,94108.88
2019-05-18T22:05:40.775Z,94108.88
2019-05-18T22:08:11.375Z,94109.84
2019-05-18T22:10:41.721Z,94109.84
2019-05-18T22:13:12.132Z,94109.95
2019-05-18T22:15:43.009Z,94112.22
2019-05-18T22:18:24.115Z,94112.22
2019-05-18T22:20:45.431Z,94110.45
2019-05-18T22:23:15.873Z,94112.05
2019-05-18T22:25:46.236Z,94116.27
2019-05-18T22:28:16.544Z,94116.08
2019-05-18T22:30:47.420Z,94120.39
2019-05-18T22:33:18.149Z,94112.70
2019-05-18T22:35:48.541Z,94120.35
2019-05-18T22:38:19.403Z,94100.95
2019-05-18T22:40:49.776Z,94100.95
2019-05-18T22:43:20.505Z,94113.09
2019-05-18T22:45:51.040Z,94117.47
2019-05-18T22:48:21.338Z,94117.91
2019-05-18T22:50:52.073Z,94117.91
2019-05-18T22:53:22.513Z,94117.91
2019-05-18T22:55:52.942Z,94122.28
2019-05-18T22:58:23.610Z,94124.83
2019-05-18T23:00:54.350Z,94122.93
2019-05-18T23:03:24.714Z,94120.44
2019-05-18T23:05:55.212Z,94118.98
2019-05-18T23:08:25.882Z,94114.91
2019-05-18T23:10:56.187Z,94120.83
2019-05-18T23:13:28.299Z,94117.05
2019-05-18T23:15:58.646Z,94120.15
2019-05-18T23:18:29.088Z,94118.77
2019-05-18T23:20:59.543Z,94120.67
2019-05-18T23:23:29.913Z,94118.17
2019-05-18T23:26:00.400Z,94121.56
2019-05-18T23:28:31.098Z,94119.05
2019-05-18T23:31:01.498Z,94120.11
2019-05-18T23:33:31.858Z,94120.40
2019-05-18T23:36:02.485Z,94125.08
2019-05-18T23:38:32.865Z,94126.11
2019-05-18T23:41:03.231Z,94121.89
2019-05-18T23:43:33.935Z,94125.27
2019-05-18T23:46:04.331Z,94136.34
2019-05-18T23:48:34.642Z,94134.06
2019-05-18T23:51:05.465Z,94133.17
2019-05-18T23:53:35.884Z,94133.95
2019-05-18T23:56:07.276Z,94134.50
2019-05-18T23:58:37.962Z,94129.98
